Route Details

Aircraft Information
Group: North America Fleet
Types: B738, B752, B762, B763
Route Data
Distance: 711nm
Duration: 2h 29m
Origin METAR: KDEN 100353Z 15008KT 10SM FEW090 M05/M16 A2999 RMK AO2 SLP177 T10501161
Dest. METAR: KONT 100353Z 00000KT 10SM CLR 11/06 A3011 RMK AO2 SLP199 T01060056
Freight Data
(for Dec 10, 2022)
Load Factor:
68%
Manifested Cargo: 45,869lbs
Financial History
Total Freight: 142,412lbs
Average Load: 0lbs/flt
Fuel Used: 92,672lbs
Avg. Fuel Used: 0lbs/flt
Fuel Expense: $42,887
Avg. Fuel Expense: $0
Avg. Fuel Cost: $0/lbs
Total Gross Income: $373,119
Pilot Pay: $248
Total Expenses: $74,336
Total Revenue: $254,787
Average Revenue: $0

Capitol Logistics 311




KDEN
Denver International Airport
Denver, Colorado
KONT
Ontario International Airport
Ontario, California

Activity Log

Date Flight Route Aircraft Duration
12/04/2022 CPX311 Capitol Logistics (smartCARS) B763 2h 39m
07/17/2022 CPX311 BAYLR6 TEHRU TOADD Q78 MARUE JCKIE2 B763 1h 53m